createdAt,value
2024-04-18T00:00:27.039Z,78.36
2024-04-18T00:01:27.015Z,78.46
2024-04-18T00:02:27.053Z,79.04
2024-04-18T00:03:27.056Z,79.28
2024-04-18T00:04:27.037Z,79.24
2024-04-18T00:05:27.006Z,78.74
2024-04-18T00:06:26.967Z,78.80
2024-04-18T00:07:26.889Z,78.74
2024-04-18T00:08:26.887Z,79.14
2024-04-18T00:09:26.940Z,78.77
2024-04-18T00:10:27.069Z,79.08
2024-04-18T00:11:26.914Z,79.24
2024-04-18T00:12:26.877Z,78.77
2024-04-18T00:13:26.963Z,79.69
2024-04-18T00:14:26.832Z,80.10
2024-04-18T00:15:27.602Z,80.10
2024-04-18T00:16:26.827Z,80.41
2024-04-18T00:17:26.988Z,81.02
2024-04-18T00:18:26.992Z,81.64
2024-04-18T00:19:26.813Z,81.02
2024-04-18T00:20:27.037Z,81.02
2024-04-18T00:21:26.894Z,80.10
2024-04-18T00:22:26.898Z,80.86
2024-04-18T00:23:27.780Z,80.38
2024-04-18T00:24:26.797Z,80.96
2024-04-18T00:25:26.945Z,80.65
2024-04-18T00:26:26.777Z,80.86
2024-04-18T00:27:26.799Z,81.43
2024-04-18T00:28:26.792Z,80.62
2024-04-18T00:29:26.764Z,80.58
2024-04-18T00:30:26.775Z,80.47
2024-04-18T00:31:26.748Z,80.47
2024-04-18T00:32:26.740Z,79.93
2024-04-18T00:33:26.801Z,79.24
2024-04-18T00:34:26.750Z,79.04
2024-04-18T00:35:26.737Z,79.14
2024-04-18T00:36:26.722Z,79.96
2024-04-18T00:37:26.715Z,80.17
2024-04-18T00:38:26.725Z,79.24
2024-04-18T00:39:26.744Z,79.04
2024-04-18T00:40:26.689Z,79.24
2024-04-18T00:41:26.813Z,79.55
2024-04-18T00:42:26.831Z,79.45
2024-04-18T00:43:26.690Z,79.75
2024-04-18T00:44:26.653Z,79.96
2024-04-18T00:45:26.747Z,80.07
2024-04-18T00:46:26.633Z,79.72
2024-04-18T00:47:26.785Z,79.55
2024-04-18T00:48:26.812Z,79.96
2024-04-18T00:49:26.659Z,79.75
2024-04-18T00:50:26.766Z,79.75
2024-04-18T00:51:26.625Z,79.90
2024-04-18T00:52:26.660Z,80.31
2024-04-18T00:53:26.915Z,80.31
2024-04-18T00:54:26.595Z,79.80
2024-04-18T00:55:26.597Z,79.55
2024-04-18T00:56:26.607Z,79.49
2024-04-18T00:57:26.597Z,79.49
2024-04-18T00:58:26.627Z,79.69
2024-04-18T00:59:26.554Z,80.00
2024-04-18T01:00:26.646Z,79.69
2024-04-18T01:01:26.588Z,79.66
2024-04-18T01:02:26.570Z,79.45
2024-04-18T01:03:26.601Z,79.24
2024-04-18T01:04:26.641Z,79.45
2024-04-18T01:05:26.528Z,79.59
2024-04-18T01:06:26.575Z,79.35
2024-04-18T01:07:26.514Z,79.04
2024-04-18T01:08:26.487Z,79.45
2024-04-18T01:09:26.510Z,79.45
2024-04-18T01:10:26.515Z,79.86
2024-04-18T01:11:26.651Z,79.59
2024-04-18T01:12:26.488Z,80.41
2024-04-18T01:13:26.508Z,80.72
2024-04-18T01:14:26.449Z,80.92
2024-04-18T01:15:26.518Z,80.69
2024-04-18T01:16:26.459Z,82.17
2024-04-18T01:17:26.473Z,83.09
2024-04-18T01:18:26.543Z,83.33
2024-04-18T01:19:26.424Z,83.40
2024-04-18T01:20:26.456Z,83.15
2024-04-18T01:21:26.439Z,83.05
2024-04-18T01:22:26.434Z,83.63
2024-04-18T01:23:26.422Z,82.70
2024-04-18T01:24:27.422Z,82.81
2024-04-18T01:25:26.397Z,82.70
2024-04-18T01:26:26.388Z,81.99
2024-04-18T01:27:26.407Z,81.99
2024-04-18T01:28:26.402Z,81.48
2024-04-18T01:29:26.354Z,81.64
2024-04-18T01:30:26.388Z,81.74
2024-04-18T01:31:26.333Z,81.23
2024-04-18T01:32:26.413Z,81.02
2024-04-18T01:33:26.768Z,81.02
2024-04-18T01:34:27.599Z,80.82
2024-04-18T01:35:26.332Z,80.24
2024-04-18T01:36:26.375Z,81.27
2024-04-18T01:37:26.358Z,81.74
2024-04-18T01:38:26.287Z,80.72
2024-04-18T01:39:26.333Z,80.55
2024-04-18T01:40:26.286Z,81.06
2024-04-18T01:41:26.278Z,81.16
2024-04-18T01:42:26.335Z,81.82
2024-04-18T01:43:26.374Z,81.99
2024-04-18T01:44:26.246Z,81.85
2024-04-18T01:45:26.349Z,80.92
2024-04-18T01:46:26.257Z,80.92
2024-04-18T01:47:26.309Z,80.62
2024-04-18T01:48:26.372Z,79.59
2024-04-18T01:49:26.263Z,79.42
2024-04-18T01:50:26.222Z,79.80
2024-04-18T01:51:26.266Z,79.69
2024-04-18T01:52:26.245Z,79.75
2024-04-18T01:53:26.223Z,79.14
2024-04-18T01:54:26.243Z,79.14
2024-04-18T01:55:26.212Z,78.94
2024-04-18T01:56:26.212Z,78.63
2024-04-18T01:57:26.204Z,78.53
2024-04-18T01:58:26.202Z,78.63
2024-04-18T01:59:26.190Z,78.53
2024-04-18T02:00:26.189Z,78.32
2024-04-18T02:01:26.239Z,78.94
2024-04-18T02:02:26.158Z,78.74
2024-04-18T02:03:26.224Z,78.02
2024-04-18T02:04:26.257Z,78.42
2024-04-18T02:05:26.111Z,78.94
2024-04-18T02:06:26.329Z,79.49
2024-04-18T02:07:26.148Z,80.00
2024-04-18T02:08:26.119Z,80.27
2024-04-18T02:09:26.181Z,80.17
2024-04-18T02:10:26.110Z,80.47
2024-04-18T02:11:26.115Z,79.75
2024-04-18T02:13:26.083Z,80.21
2024-04-18T02:14:26.059Z,80.07
2024-04-18T02:15:26.181Z,79.75
2024-04-18T02:16:26.104Z,80.07
2024-04-18T02:17:26.071Z,80.21
2024-04-18T02:18:26.090Z,80.47
2024-04-18T02:19:26.074Z,80.47
2024-04-18T02:20:26.091Z,80.27
2024-04-18T02:21:26.050Z,80.17
2024-04-18T02:22:26.026Z,80.17
2024-04-18T02:23:26.001Z,79.66
2024-04-18T02:24:26.069Z,79.80
2024-04-18T02:25:26.052Z,80.21
2024-04-18T02:26:26.014Z,80.21
2024-04-18T02:27:26.028Z,80.21
2024-04-18T02:28:25.986Z,79.96
2024-04-18T02:29:25.991Z,80.17
2024-04-18T02:30:27.054Z,79.66
2024-04-18T02:31:26.968Z,79.96
2024-04-18T02:32:26.198Z,80.51
2024-04-18T02:33:25.975Z,80.51
2024-04-18T02:34:25.996Z,80.00
2024-04-18T02:35:26.934Z,80.21
2024-04-18T02:36:25.943Z,79.86
2024-04-18T02:37:25.905Z,79.62
2024-04-18T02:38:25.897Z,79.04
2024-04-18T02:39:25.949Z,79.21
2024-04-18T02:40:25.932Z,78.90
2024-04-18T02:41:25.923Z,78.49
2024-04-18T02:42:25.925Z,78.70
2024-04-18T02:43:25.872Z,78.70
2024-04-18T02:44:25.874Z,78.70
2024-04-18T02:45:25.875Z,78.49
2024-04-18T02:46:25.902Z,78.70
2024-04-18T02:47:25.902Z,78.80
2024-04-18T02:48:25.958Z,78.66
2024-04-18T02:49:25.899Z,78.70
2024-04-18T02:50:25.841Z,78.70
2024-04-18T02:51:25.912Z,78.83
2024-04-18T02:52:25.829Z,79.66
2024-04-18T02:53:25.879Z,80.17
2024-04-18T02:54:25.839Z,80.17
2024-04-18T02:55:25.837Z,80.23
2024-04-18T02:56:25.838Z,79.41
2024-04-18T02:57:25.837Z,79.62
2024-04-18T02:58:25.795Z,79.31
2024-04-18T02:59:25.779Z,80.03
2024-04-18T03:00:25.790Z,80.27
2024-04-18T03:01:25.822Z,80.07
2024-04-18T03:02:25.811Z,79.86
2024-04-18T03:03:25.804Z,79.62
2024-04-18T03:04:25.788Z,79.52
2024-04-18T03:05:25.776Z,79.41
2024-04-18T03:06:25.794Z,79.72
2024-04-18T03:07:25.775Z,79.93
2024-04-18T03:08:25.731Z,79.93
2024-04-18T03:09:25.762Z,80.47
2024-04-18T03:10:25.770Z,80.78
2024-04-18T03:11:25.944Z,80.58
2024-04-18T03:12:25.768Z,80.99
2024-04-18T03:13:25.701Z,80.99
2024-04-18T03:14:25.778Z,81.09
2024-04-18T03:15:25.701Z,81.20
2024-04-18T03:16:25.718Z,80.99
2024-04-18T03:17:25.753Z,80.54
2024-04-18T03:18:25.721Z,81.05
2024-04-18T03:19:25.681Z,80.54
2024-04-18T03:20:25.673Z,80.58
2024-04-18T03:21:26.676Z,80.58
2024-04-18T03:22:25.695Z,82.05
2024-04-18T03:23:25.673Z,81.57
2024-04-18T03:24:25.690Z,82.09
2024-04-18T03:25:25.642Z,81.57
2024-04-18T03:26:25.647Z,83.05
2024-04-18T03:27:25.643Z,83.36
2024-04-18T03:28:25.972Z,83.50
2024-04-18T03:29:25.597Z,83.81
2024-04-18T03:30:25.580Z,84.32
2024-04-18T03:31:25.598Z,84.32
2024-04-18T03:32:25.645Z,84.63
2024-04-18T03:33:25.646Z,84.49
2024-04-18T03:34:25.549Z,83.87
2024-04-18T03:35:25.560Z,83.87
2024-04-18T03:36:25.568Z,82.17
2024-04-18T03:37:25.527Z,83.26
2024-04-18T03:38:25.543Z,83.19
2024-04-18T03:39:25.556Z,82.89
2024-04-18T03:40:25.980Z,83.54
2024-04-18T03:41:25.509Z,84.05
2024-04-18T03:42:25.523Z,84.05
2024-04-18T03:43:25.527Z,84.26
2024-04-18T03:44:25.505Z,85.22
2024-04-18T03:45:25.528Z,85.33
2024-04-18T03:46:25.486Z,84.67
2024-04-18T03:47:25.555Z,83.99
2024-04-18T03:48:25.491Z,84.50
2024-04-18T03:49:25.456Z,84.05
2024-04-18T03:50:25.468Z,83.61
2024-04-18T03:51:25.474Z,83.95
2024-04-18T03:52:25.447Z,83.64
2024-04-18T03:53:25.443Z,84.40
2024-04-18T03:54:25.445Z,84.26
2024-04-18T03:55:25.483Z,84.12
2024-04-18T03:56:25.447Z,82.10
2024-04-18T03:57:25.467Z,83.33
2024-04-18T03:58:25.405Z,83.37
2024-04-18T03:59:25.395Z,84.13
2024-04-18T04:00:25.401Z,85.57
2024-04-18T04:01:25.669Z,85.26
2024-04-18T04:02:25.438Z,85.43
2024-04-18T04:03:25.404Z,84.20
2024-04-18T04:04:25.464Z,84.30
2024-04-18T04:05:25.360Z,84.40
2024-04-18T04:06:25.482Z,84.20
2024-04-18T04:07:25.375Z,83.78
2024-04-18T04:08:25.338Z,84.40
2024-04-18T04:09:25.346Z,85.28
2024-04-18T04:10:25.333Z,84.22
2024-04-18T04:11:25.354Z,83.46
2024-04-18T04:12:25.346Z,82.89
2024-04-18T04:13:25.309Z,83.75
2024-04-18T04:14:25.338Z,84.09
2024-04-18T04:15:25.314Z,84.20
2024-04-18T04:16:25.298Z,83.99
2024-04-18T04:17:25.305Z,83.99
2024-04-18T04:18:25.366Z,84.30
2024-04-18T04:19:25.325Z,84.47
2024-04-18T04:20:25.899Z,83.40
2024-04-18T04:21:25.329Z,84.01
2024-04-18T04:22:25.288Z,83.03
2024-04-18T04:23:25.334Z,83.54
2024-04-18T04:24:25.324Z,83.99
2024-04-18T04:25:25.240Z,84.26
2024-04-18T04:26:25.231Z,84.05
2024-04-18T04:27:25.252Z,83.54
2024-04-18T04:28:25.252Z,83.95
2024-04-18T04:29:25.225Z,84.36
2024-04-18T04:30:25.243Z,84.12
2024-04-18T04:31:25.204Z,83.56
2024-04-18T04:32:25.346Z,83.26
2024-04-18T04:33:25.226Z,82.70
2024-04-18T04:34:25.193Z,82.77
2024-04-18T04:35:25.171Z,82.15
2024-04-18T04:36:25.776Z,81.43
2024-04-18T04:37:26.203Z,81.85
2024-04-18T04:38:25.207Z,81.23
2024-04-18T04:39:25.231Z,81.34
2024-04-18T04:40:25.155Z,80.51
2024-04-18T04:41:25.147Z,80.72
2024-04-18T04:42:25.197Z,81.13
2024-04-18T04:43:25.132Z,81.48
2024-04-18T04:44:25.163Z,82.09
2024-04-18T04:45:25.208Z,81.99
2024-04-18T04:46:25.098Z,81.34
2024-04-18T04:47:25.198Z,80.72
2024-04-18T04:48:25.353Z,80.92
2024-04-18T04:49:25.193Z,80.82
2024-04-18T04:50:25.236Z,80.72
2024-04-18T04:51:25.090Z,80.41
2024-04-18T04:52:25.073Z,81.02
2024-04-18T04:53:25.131Z,80.51
2024-04-18T04:54:25.962Z,79.80
2024-04-18T04:55:25.057Z,80.18
2024-04-18T04:56:25.109Z,82.06
2024-04-18T04:57:25.090Z,82.71
2024-04-18T04:58:25.070Z,83.40
2024-04-18T04:59:25.086Z,83.09
2024-04-18T05:00:25.074Z,83.44
2024-04-18T05:01:25.074Z,84.20
2024-04-18T05:02:25.044Z,84.30
2024-04-18T05:03:25.074Z,84.20
2024-04-18T05:04:25.555Z,84.20
2024-04-18T05:05:25.035Z,84.09
2024-04-18T05:06:25.071Z,85.33
2024-04-18T05:07:24.974Z,85.84
2024-04-18T05:08:24.964Z,85.43
2024-04-18T05:09:25.010Z,85.16
2024-04-18T05:10:24.946Z,85.43
2024-04-18T05:11:25.020Z,85.33
2024-04-18T05:12:24.983Z,85.22
2024-04-18T05:13:24.964Z,84.36
2024-04-18T05:14:24.978Z,84.16
2024-04-18T05:15:24.991Z,84.47
2024-04-18T05:16:26.412Z,84.05
2024-04-18T05:17:26.089Z,83.33
2024-04-18T05:18:24.912Z,83.68
2024-04-18T05:19:24.915Z,84.16
2024-04-18T05:20:25.066Z,85.22
2024-04-18T05:21:24.901Z,84.81
2024-04-18T05:22:24.893Z,84.56
2024-04-18T05:23:24.943Z,83.95
2024-04-18T05:24:24.913Z,83.95
2024-04-18T05:25:24.892Z,84.26
2024-04-18T05:26:24.849Z,83.29
2024-04-18T05:27:24.910Z,84.05
2024-04-18T05:28:24.881Z,83.44
2024-04-18T05:29:24.950Z,83.58
2024-04-18T05:30:24.952Z,83.23
2024-04-18T05:31:24.925Z,84.16
2024-04-18T05:32:24.936Z,84.16
2024-04-18T05:33:24.932Z,84.32
2024-04-18T05:34:24.826Z,84.12
2024-04-18T05:35:24.817Z,83.67
2024-04-18T05:36:24.829Z,83.05
2024-04-18T05:37:24.859Z,82.54
2024-04-18T05:38:24.896Z,82.91
2024-04-18T05:39:24.852Z,81.95
2024-04-18T05:40:24.849Z,81.43
2024-04-18T05:41:24.774Z,81.78
2024-04-18T05:42:24.810Z,81.68
2024-04-18T05:43:24.822Z,82.64
2024-04-18T05:44:24.803Z,82.95
2024-04-18T05:45:24.842Z,82.75
2024-04-18T05:46:24.750Z,83.09
2024-04-18T05:47:24.853Z,84.08
2024-04-18T05:48:24.796Z,83.05
2024-04-18T05:49:24.728Z,83.15
2024-04-18T05:50:24.816Z,83.26
2024-04-18T05:51:24.787Z,83.42
2024-04-18T05:52:24.794Z,82.64
2024-04-18T05:53:24.724Z,83.05
2024-04-18T05:54:24.740Z,82.33
2024-04-18T05:55:24.740Z,83.50
2024-04-18T05:56:25.024Z,83.61
2024-04-18T05:57:24.741Z,83.87
2024-04-18T05:58:24.679Z,83.15
2024-04-18T05:59:24.669Z,83.46
2024-04-18T06:00:24.676Z,84.01
2024-04-18T06:01:24.782Z,83.81
2024-04-18T06:02:31.453Z,84.01
2024-04-18T06:03:24.656Z,83.36
2024-04-18T06:04:24.730Z,83.70
2024-04-18T06:05:24.638Z,84.12
2024-04-18T06:06:24.704Z,83.26
2024-04-18T06:07:24.669Z,82.75
2024-04-18T06:08:24.651Z,82.84
2024-04-18T06:09:24.647Z,83.29
2024-04-18T06:10:24.690Z,83.29
2024-04-18T06:11:24.690Z,84.12
2024-04-18T06:12:24.668Z,83.09
2024-04-18T06:13:24.615Z,83.40
2024-04-18T06:14:24.624Z,82.47
2024-04-18T06:15:24.582Z,83.70
2024-04-18T06:16:24.741Z,83.50
2024-04-18T06:17:24.554Z,83.26
2024-04-18T06:18:24.603Z,82.43
2024-04-18T06:19:27.044Z,83.15
2024-04-18T06:20:24.571Z,82.84
2024-04-18T06:21:24.596Z,83.15
2024-04-18T06:22:24.539Z,83.40
2024-04-18T06:23:24.529Z,83.81
2024-04-18T06:24:24.537Z,83.37
2024-04-18T06:25:24.521Z,84.05
2024-04-18T06:26:24.533Z,83.64
2024-04-18T06:27:24.524Z,83.95
2024-04-18T06:28:24.499Z,83.64
2024-04-18T06:29:24.538Z,83.85
2024-04-18T06:30:24.543Z,84.42
2024-04-18T06:31:24.529Z,84.08
2024-04-18T06:32:24.511Z,83.70
2024-04-18T06:33:24.627Z,82.54
2024-04-18T06:34:24.540Z,82.13
2024-04-18T06:35:24.475Z,82.13
2024-04-18T06:36:24.488Z,81.82
2024-04-18T06:37:24.452Z,81.71
2024-04-18T06:38:24.452Z,82.06
2024-04-18T06:39:24.487Z,82.92
2024-04-18T06:40:24.463Z,82.37
2024-04-18T06:41:24.444Z,83.29
2024-04-18T06:42:24.419Z,82.03
2024-04-18T06:43:25.211Z,81.92
2024-04-18T06:44:25.387Z,81.71
2024-04-18T06:45:24.391Z,81.51
2024-04-18T06:46:24.436Z,81.30
2024-04-18T06:47:24.404Z,81.30
2024-04-18T06:48:24.608Z,81.85
2024-04-18T06:49:24.379Z,80.79
2024-04-18T06:50:26.774Z,81.10
2024-04-18T06:51:24.513Z,81.06
2024-04-18T06:52:24.403Z,81.68
2024-04-18T06:53:24.351Z,80.49
2024-04-18T06:54:24.368Z,80.76
2024-04-18T06:55:24.374Z,81.06
2024-04-18T06:56:24.357Z,80.72
2024-04-18T06:57:24.448Z,79.32
2024-04-18T06:58:24.310Z,79.49
2024-04-18T06:59:24.365Z,79.14
2024-04-18T07:00:24.332Z,78.46
2024-04-18T07:01:24.374Z,79.24
2024-04-18T07:02:24.320Z,78.63
2024-04-18T07:03:24.543Z,78.35
2024-04-18T07:04:24.456Z,77.98
2024-04-18T07:05:24.343Z,77.71
2024-04-18T07:06:24.337Z,79.08
2024-04-18T07:07:24.285Z,78.56
2024-04-18T07:08:24.670Z,79.14
2024-04-18T07:09:24.322Z,78.42
2024-04-18T07:10:24.247Z,79.04
2024-04-18T07:11:24.304Z,78.74
2024-04-18T07:12:24.291Z,78.86
2024-04-18T07:13:24.340Z,76.31
2024-04-18T07:14:24.256Z,76.61
2024-04-18T07:15:24.262Z,75.86
2024-04-18T07:16:24.208Z,75.38
2024-04-18T07:17:24.325Z,73.81
2024-04-18T07:18:24.310Z,73.94
2024-04-18T07:19:24.260Z,73.64
2024-04-18T07:20:24.224Z,73.36
2024-04-18T07:21:24.252Z,74.02
2024-04-18T07:22:24.197Z,74.35
2024-04-18T07:23:24.211Z,73.61
2024-04-18T07:24:24.216Z,72.17
2024-04-18T07:25:24.232Z,73.10
2024-04-18T07:26:24.963Z,71.87
2024-04-18T07:27:24.287Z,70.72
2024-04-18T07:28:24.205Z,68.48
2024-04-18T07:29:24.164Z,66.14
2024-04-18T07:30:24.178Z,64.72
2024-04-18T07:31:24.209Z,66.68
2024-04-18T07:32:24.128Z,66.63
2024-04-18T07:33:24.400Z,68.94
2024-04-18T07:34:24.357Z,71.19
2024-04-18T07:35:24.103Z,71.90
2024-04-18T07:36:24.176Z,71.83
2024-04-18T07:37:24.107Z,73.50
2024-04-18T07:38:24.147Z,73.81
2024-04-18T07:39:24.155Z,73.61
2024-04-18T07:40:24.081Z,73.20
2024-04-18T07:41:24.061Z,71.97
2024-04-18T07:42:24.169Z,73.16
2024-04-18T07:43:24.059Z,72.00
2024-04-18T07:44:25.112Z,72.86
2024-04-18T07:45:25.193Z,71.80
2024-04-18T07:46:24.013Z,70.23
2024-04-18T07:47:24.080Z,70.44
2024-04-18T07:48:24.126Z,69.53
2024-04-18T07:49:24.094Z,66.58
2024-04-18T07:50:24.033Z,64.64
2024-04-18T07:51:24.198Z,64.54
2024-04-18T07:52:24.080Z,67.05
2024-04-18T07:53:24.946Z,66.86
2024-04-18T07:54:24.057Z,68.60
2024-04-18T07:55:23.951Z,67.96
2024-04-18T07:56:24.559Z,68.88
2024-04-18T07:57:24.653Z,67.99
2024-04-18T07:58:24.387Z,65.75
2024-04-18T07:59:24.408Z,65.62
2024-04-18T08:00:25.429Z,62.32
2024-04-18T08:01:25.234Z,60.13
2024-04-18T08:02:25.463Z,59.43
2024-04-18T08:03:25.923Z,58.47
2024-04-18T08:04:44.999Z,55.27
2024-04-18T08:05:27.740Z,53.78
2024-04-18T08:06:26.692Z,53.63
2024-04-18T08:07:28.409Z,52.01
2024-04-18T08:08:27.498Z,52.04
2024-04-18T08:09:26.142Z,48.06
2024-04-18T08:10:32.805Z,47.03
2024-04-18T08:11:53.542Z,51.61
2024-04-18T08:12:29.677Z,51.60
2024-04-18T08:13:27.883Z,54.03
2024-04-18T08:14:29.543Z,53.60
2024-04-18T08:16:24.893Z,54.03
2024-04-18T08:17:23.932Z,55.60
2024-04-18T08:18:23.884Z,57.61
2024-04-18T08:19:23.816Z,56.60
2024-04-18T08:20:23.781Z,56.90
2024-04-18T08:21:23.914Z,58.17
2024-04-18T08:22:23.769Z,59.53
2024-04-18T08:23:23.773Z,59.63
2024-04-18T08:24:23.819Z,58.99
2024-04-18T08:25:23.873Z,60.24
2024-04-18T08:26:23.771Z,60.47
2024-04-18T08:27:23.740Z,59.48
2024-04-18T08:28:23.813Z,59.01
2024-04-18T08:29:23.696Z,56.84
2024-04-18T08:30:23.761Z,54.51
2024-04-18T08:31:23.773Z,54.24
2024-04-18T08:32:23.767Z,55.66
2024-04-18T08:33:24.813Z,56.04
2024-04-18T08:34:25.035Z,58.30
2024-04-18T08:35:23.681Z,58.71
2024-04-18T08:36:23.761Z,59.19
2024-04-18T08:37:23.660Z,58.76
2024-04-18T08:38:23.710Z,56.60
2024-04-18T08:39:23.680Z,55.93
2024-04-18T08:40:23.702Z,55.07
2024-04-18T08:41:23.736Z,55.78
2024-04-18T08:42:23.725Z,54.74
2024-04-18T08:43:23.683Z,54.16
2024-04-18T08:44:23.613Z,55.91
2024-04-18T08:45:23.661Z,56.44
2024-04-18T08:46:23.612Z,58.60
2024-04-18T08:47:23.675Z,58.15
2024-04-18T08:48:23.742Z,59.12
2024-04-18T08:49:23.639Z,59.60
2024-04-18T08:50:23.703Z,59.06
2024-04-18T08:51:23.621Z,59.14
2024-04-18T08:52:23.580Z,59.06
2024-04-18T08:53:23.601Z,57.03
2024-04-18T08:54:23.668Z,58.23
2024-04-18T08:55:23.626Z,60.39
2024-04-18T08:56:23.544Z,60.39
2024-04-18T08:57:23.631Z,60.34
2024-04-18T08:58:23.621Z,59.39
2024-04-18T08:59:23.573Z,58.25
2024-04-18T09:00:23.589Z,56.70
2024-04-18T09:01:23.574Z,55.76
2024-04-18T09:02:23.580Z,55.30
2024-04-18T09:03:23.674Z,56.01
2024-04-18T09:04:23.559Z,54.41
2024-04-18T09:05:23.516Z,54.36
2024-04-18T09:06:23.619Z,56.29
2024-04-18T09:07:23.570Z,57.64
2024-04-18T09:08:23.499Z,58.51
2024-04-18T09:09:23.491Z,58.89
2024-04-18T09:10:23.497Z,58.63
2024-04-18T09:11:23.651Z,56.47
2024-04-18T09:12:23.522Z,56.16
2024-04-18T09:13:24.424Z,56.70
2024-04-18T09:14:24.473Z,57.87
2024-04-18T09:15:23.623Z,57.64
2024-04-18T09:16:23.433Z,55.91
2024-04-18T09:17:23.587Z,55.33
2024-04-18T09:18:23.526Z,56.90
2024-04-18T09:19:24.581Z,57.82
2024-04-18T09:20:23.454Z,56.60
2024-04-18T09:21:23.422Z,57.59
2024-04-18T09:22:23.444Z,56.77
2024-04-18T09:23:23.402Z,57.77
2024-04-18T09:24:23.444Z,57.34
2024-04-18T09:25:23.352Z,57.61
2024-04-18T09:26:23.353Z,55.30
2024-04-18T09:27:24.378Z,56.01
2024-04-18T09:28:23.396Z,55.73
2024-04-18T09:29:23.366Z,57.06
2024-04-18T09:30:23.482Z,56.81
2024-04-18T09:31:30.422Z,58.87
2024-04-18T09:32:25.381Z,59.12
2024-04-18T09:33:23.407Z,57.67
2024-04-18T09:34:23.468Z,59.01
2024-04-18T09:35:23.324Z,58.99
2024-04-18T09:36:23.435Z,57.56
2024-04-18T09:37:23.366Z,57.90
2024-04-18T09:38:23.301Z,57.87
2024-04-18T09:39:23.428Z,58.20
2024-04-18T09:40:23.356Z,58.38
2024-04-18T09:41:23.315Z,56.01
2024-04-18T09:42:23.996Z,51.40
2024-04-18T09:43:23.277Z,47.86
2024-04-18T09:44:25.361Z,47.25
2024-04-18T09:45:23.542Z,47.44
2024-04-18T09:46:23.238Z,49.53
2024-04-18T09:47:23.248Z,49.63
2024-04-18T09:48:23.393Z,49.65
2024-04-18T09:49:23.431Z,52.81
2024-04-18T09:50:23.212Z,53.85
2024-04-18T09:51:23.257Z,53.06
2024-04-18T09:52:23.218Z,54.36
2024-04-18T09:53:23.204Z,53.19
2024-04-18T09:54:23.988Z,53.27
2024-04-18T09:55:25.587Z,51.77
2024-04-18T09:56:24.222Z,50.43
2024-04-18T09:57:23.181Z,52.15
2024-04-18T09:58:23.195Z,49.44
2024-04-18T09:59:23.249Z,47.90
2024-04-18T10:00:23.337Z,47.78
2024-04-18T10:01:23.185Z,48.00
2024-04-18T10:02:23.183Z,47.63
2024-04-18T10:03:23.230Z,46.14
2024-04-18T10:04:23.246Z,47.39
2024-04-18T10:05:23.149Z,48.87
2024-04-18T10:06:23.242Z,46.76
2024-04-18T10:07:23.144Z,47.45
2024-04-18T10:08:23.136Z,49.48
2024-04-18T10:09:23.164Z,48.06
2024-04-18T10:10:23.105Z,47.45
2024-04-18T10:11:23.222Z,48.24
2024-04-18T10:12:23.207Z,47.54
2024-04-18T10:13:23.220Z,47.75
2024-04-18T10:14:23.100Z,48.30
2024-04-18T10:15:23.222Z,49.82
2024-04-18T10:16:23.075Z,49.62
2024-04-18T10:17:23.082Z,50.00
2024-04-18T10:18:23.167Z,50.76
2024-04-18T10:19:23.103Z,50.45
2024-04-18T10:20:24.032Z,51.95
2024-04-18T10:21:32.087Z,50.31
2024-04-18T10:22:36.203Z,50.43
2024-04-18T10:23:24.032Z,50.40
2024-04-18T10:24:23.148Z,49.98
2024-04-18T10:25:22.984Z,49.47
2024-04-18T10:26:23.033Z,49.19
2024-04-18T10:27:23.049Z,49.39
2024-04-18T10:28:23.015Z,48.55
2024-04-18T10:29:23.022Z,49.27
2024-04-18T10:30:23.015Z,47.94
2024-04-18T10:31:22.974Z,44.93
2024-04-18T10:32:22.992Z,42.11
2024-04-18T10:33:23.101Z,39.99
2024-04-18T10:34:23.813Z,38.51
2024-04-18T10:35:22.974Z,36.94
2024-04-18T10:36:22.950Z,35.29
2024-04-18T10:37:23.839Z,35.03
2024-04-18T10:38:22.975Z,36.01
2024-04-18T10:39:23.351Z,37.01
2024-04-18T10:40:22.953Z,34.28
2024-04-18T10:41:22.902Z,34.96
2024-04-18T10:42:23.026Z,34.73
2024-04-18T10:43:22.903Z,37.96
2024-04-18T10:44:23.938Z,40.34
2024-04-18T10:45:22.899Z,42.11
2024-04-18T10:46:22.862Z,44.03
2024-04-18T10:47:22.942Z,45.43
2024-04-18T10:48:23.047Z,45.71
2024-04-18T10:49:22.983Z,45.49
2024-04-18T10:50:22.917Z,45.18
2024-04-18T10:51:22.940Z,44.82
2024-04-18T10:52:22.873Z,45.86
2024-04-18T10:53:22.818Z,45.91
2024-04-18T10:54:22.833Z,45.96
2024-04-18T10:55:22.814Z,45.27
2024-04-18T10:56:22.842Z,46.10
2024-04-18T10:57:22.898Z,46.69
2024-04-18T10:58:22.789Z,45.26
2024-04-18T10:59:22.856Z,41.47
2024-04-18T11:00:22.845Z,39.98
2024-04-18T11:01:22.830Z,38.28
2024-04-18T11:02:22.886Z,40.56
2024-04-18T11:03:22.859Z,40.70
2024-04-18T11:04:22.916Z,42.05
2024-04-18T11:05:22.792Z,40.72
2024-04-18T11:06:22.776Z,40.62
2024-04-18T11:07:22.758Z,38.40
2024-04-18T11:08:22.733Z,36.40
2024-04-18T11:09:22.855Z,36.69
2024-04-18T11:10:22.752Z,36.78
2024-04-18T11:11:22.746Z,36.03
2024-04-18T11:12:22.758Z,35.89
2024-04-18T11:13:24.033Z,37.02
2024-04-18T11:14:23.171Z,38.70
2024-04-18T11:15:26.443Z,38.23
2024-04-18T11:16:25.746Z,39.99
2024-04-18T11:17:29.011Z,42.13
2024-04-18T11:18:31.716Z,42.01
2024-04-18T11:19:25.187Z,41.89
2024-04-18T11:20:23.043Z,43.24
2024-04-18T11:21:24.963Z,44.54
2024-04-18T11:22:22.699Z,43.14
2024-04-18T11:23:29.197Z,42.88
2024-04-18T11:24:25.874Z,43.06
2024-04-18T11:25:23.860Z,44.11
2024-04-18T11:26:22.764Z,43.93
2024-04-18T11:27:24.629Z,44.96
2024-04-18T11:28:25.686Z,45.61
2024-04-18T11:29:25.151Z,46.46
2024-04-18T11:30:22.690Z,46.28
2024-04-18T11:31:22.795Z,47.39
2024-04-18T11:32:22.853Z,47.44
2024-04-18T11:33:22.765Z,47.85
2024-04-18T11:34:23.606Z,49.19
2024-04-18T11:35:22.691Z,49.69
2024-04-18T11:36:23.003Z,51.34
2024-04-18T11:37:22.648Z,51.34
2024-04-18T11:38:22.575Z,51.37
2024-04-18T11:39:22.966Z,52.89
2024-04-18T11:40:22.552Z,54.41
2024-04-18T11:41:22.537Z,52.36
2024-04-18T11:42:24.025Z,54.51
2024-04-18T11:43:22.508Z,55.12
2024-04-18T11:44:23.543Z,54.03
2024-04-18T11:45:22.590Z,52.81
2024-04-18T11:46:22.499Z,52.40
2024-04-18T11:47:22.516Z,51.49
2024-04-18T11:48:22.582Z,52.00
2024-04-18T11:49:22.497Z,52.40
2024-04-18T11:50:22.493Z,51.90
2024-04-18T11:51:22.492Z,51.46
2024-04-18T11:52:22.508Z,51.67
2024-04-18T11:53:22.473Z,51.85
2024-04-18T11:54:22.451Z,52.33
2024-04-18T11:55:23.498Z,52.66
2024-04-18T11:56:22.485Z,52.48
2024-04-18T11:57:22.488Z,52.36
2024-04-18T11:58:22.400Z,51.42
2024-04-18T11:59:22.419Z,50.68
2024-04-18T12:00:22.516Z,49.14
2024-04-18T12:01:22.401Z,49.67
2024-04-18T12:02:22.928Z,48.48
2024-04-18T12:03:22.436Z,50.10
2024-04-18T12:04:22.404Z,50.65
2024-04-18T12:05:22.497Z,50.12
2024-04-18T12:06:22.410Z,51.65
2024-04-18T12:07:22.351Z,48.58
2024-04-18T12:08:22.407Z,48.74
2024-04-18T12:09:22.387Z,49.22
2024-04-18T12:10:22.393Z,49.17
2024-04-18T12:11:22.396Z,47.43
2024-04-18T12:12:22.386Z,47.61
2024-04-18T12:13:22.353Z,46.40
2024-04-18T12:14:22.304Z,45.99
2024-04-18T12:15:22.329Z,46.52
2024-04-18T12:16:23.011Z,48.03
2024-04-18T12:17:22.333Z,49.11
2024-04-18T12:18:22.298Z,49.27
2024-04-18T12:19:22.335Z,48.10
2024-04-18T12:20:22.318Z,48.93
2024-04-18T12:21:22.294Z,50.84
2024-04-18T12:22:22.294Z,50.02
2024-04-18T12:23:22.271Z,48.15
2024-04-18T12:24:22.363Z,47.72
2024-04-18T12:25:22.273Z,45.57
2024-04-18T12:26:22.212Z,45.25
2024-04-18T12:27:22.437Z,43.46
2024-04-18T12:28:22.203Z,41.42
2024-04-18T12:29:22.373Z,42.13
2024-04-18T12:30:22.362Z,41.75
2024-04-18T12:31:22.248Z,42.37
2024-04-18T12:32:22.274Z,43.49
2024-04-18T12:33:22.354Z,43.69
2024-04-18T12:34:22.195Z,43.29
2024-04-18T12:35:22.167Z,44.21
2024-04-18T12:36:22.211Z,44.20
2024-04-18T12:37:22.173Z,42.86
2024-04-18T12:38:22.837Z,44.62
2024-04-18T12:39:22.240Z,43.81
2024-04-18T12:40:22.168Z,44.84
2024-04-18T12:41:22.172Z,44.68
2024-04-18T12:42:22.258Z,42.98
2024-04-18T12:43:22.143Z,43.51
2024-04-18T12:44:22.151Z,42.30
2024-04-18T12:45:22.131Z,40.57
2024-04-18T12:46:23.858Z,38.77
2024-04-18T12:47:23.226Z,37.73
2024-04-18T12:48:22.427Z,37.27
2024-04-18T12:49:22.236Z,38.25
2024-04-18T12:50:22.209Z,39.62
2024-04-18T12:51:22.170Z,40.33
2024-04-18T12:52:22.102Z,41.65
2024-04-18T12:53:22.111Z,43.06
2024-04-18T12:54:22.108Z,42.27